VTK601 UUEE-UNOO
Flight info
| Callsign | VTK601 |
|---|---|
| Flight time | 2h 51m |
| Altitude | 37000 |
| Route | KOGOM3J KOGOM L94 EKPIR M864 INKEB L94 NAMER T765 GEMKI L94 OKETI B236 BUNET BUNET6F |
| Aircraft | A320/M-SDE3FGHIRWY/LB1 |
Departure
| Time | 2026-05-05 12:13 |
|---|---|
| Airport | Sheremetyevo International Airport (UUEE) |
Arrival
| Time | 2026-05-05 15:04 |
|---|---|
| Airport | Omsk Central Airport (UNOO) |
| Time | Latitude | Longitude | Altitude | Speed | Heading |
|---|---|---|---|---|---|
| 2026-05-05 12:08 | 55.97927 | 37.42132 | 639 ft | 0 kts | 255° |
| 2026-05-05 12:08 | 55.97926 | 37.42131 | 639 ft | 0 kts | 255° |
| 2026-05-05 12:09 | 55.97915 | 37.42085 | 645 ft | 8 kts | 234° |
| 2026-05-05 12:09 | 55.97844 | 37.42065 | 641 ft | 14 kts | 168° |
| 2026-05-05 12:09 | 55.97737 | 37.42120 | 639 ft | 18 kts | 161° |
| 2026-05-05 12:09 | 55.97705 | 37.42324 | 647 ft | 22 kts | 75° |
| 2026-05-05 12:10 | 55.97748 | 37.42610 | 644 ft | 26 kts | 75° |
| 2026-05-05 12:10 | 55.97797 | 37.42936 | 640 ft | 28 kts | 75° |
| 2026-05-05 12:10 | 55.97848 | 37.43274 | 639 ft | 29 kts | 75° |
| 2026-05-05 12:10 | 55.97902 | 37.43631 | 640 ft | 30 kts | 75° |
| 2026-05-05 12:11 | 55.97946 | 37.43930 | 639 ft | 20 kts | 77° |
| 2026-05-05 12:11 | 55.97862 | 37.44063 | 640 ft | 18 kts | 166° |
| 2026-05-05 12:11 | 55.97731 | 37.44127 | 638 ft | 21 kts | 165° |
| 2026-05-05 12:11 | 55.97588 | 37.44177 | 644 ft | 21 kts | 194° |
| 2026-05-05 12:12 | 55.97513 | 37.43971 | 644 ft | 22 kts | 255° |
| 2026-05-05 12:12 | 55.97439 | 37.43486 | 641 ft | 70 kts | 255° |
| 2026-05-05 12:12 | 55.97265 | 37.42317 | 642 ft | 122 kts | 255° |
| 2026-05-05 12:12 | 55.97102 | 37.41211 | 639 ft | 149 kts | 255° |
| 2026-05-05 12:13 | 55.96795 | 37.39253 | 843 ft | 170 kts | 254° |
| 2026-05-05 12:13 | 55.96375 | 37.37245 | 1432 ft | 175 kts | 240° |
| 2026-05-05 12:13 | 55.95721 | 37.35426 | 2183 ft | 173 kts | 237° |
| 2026-05-05 12:13 | 55.95035 | 37.33632 | 2652 ft | 186 kts | 237° |
| 2026-05-05 12:14 | 55.94266 | 37.31623 | 3002 ft | 205 kts | 236° |
| 2026-05-05 12:14 | 55.93437 | 37.29451 | 3610 ft | 215 kts | 237° |
| 2026-05-05 12:14 | 55.92599 | 37.27237 | 4431 ft | 216 kts | 237° |
| 2026-05-05 12:14 | 55.91765 | 37.25032 | 5256 ft | 214 kts | 238° |
| 2026-05-05 12:15 | 55.90928 | 37.22817 | 5965 ft | 217 kts | 238° |
| 2026-05-05 12:15 | 55.89974 | 37.20718 | 6643 ft | 224 kts | 221° |
| 2026-05-05 12:15 | 55.88483 | 37.19725 | 6861 ft | 241 kts | 187° |
| 2026-05-05 12:15 | 55.86800 | 37.20573 | 6833 ft | 268 kts | 156° |
| 2026-05-05 12:16 | 55.85229 | 37.22513 | 6842 ft | 280 kts | 143° |
| 2026-05-05 12:16 | 55.84132 | 37.25409 | 6851 ft | 291 kts | 109° |
| 2026-05-05 12:16 | 55.84050 | 37.29013 | 6855 ft | 300 kts | 75° |
| 2026-05-05 12:16 | 55.85026 | 37.32319 | 7404 ft | 305 kts | 48° |
| 2026-05-05 12:17 | 55.86363 | 37.35280 | 8197 ft | 309 kts | 47° |
| 2026-05-05 12:17 | 55.87731 | 37.38281 | 8703 ft | 314 kts | 47° |
| 2026-05-05 12:17 | 55.89114 | 37.41300 | 8818 ft | 315 kts | 47° |
| 2026-05-05 12:17 | 55.90500 | 37.44323 | 8842 ft | 314 kts | 47° |
| 2026-05-05 12:18 | 55.91881 | 37.47341 | 8842 ft | 315 kts | 49° |
| 2026-05-05 12:18 | 55.92971 | 37.50735 | 8868 ft | 318 kts | 67° |
| 2026-05-05 12:18 | 55.93486 | 37.54577 | 8921 ft | 322 kts | 86° |
| 2026-05-05 12:18 | 55.93357 | 37.58557 | 9673 ft | 322 kts | 103° |
| 2026-05-05 12:19 | 55.92924 | 37.62491 | 10391 ft | 325 kts | 103° |
| 2026-05-05 12:19 | 55.92487 | 37.66458 | 11101 ft | 327 kts | 103° |
| 2026-05-05 12:19 | 55.92050 | 37.70450 | 11856 ft | 327 kts | 103° |
| 2026-05-05 12:19 | 55.91473 | 37.74371 | 12592 ft | 327 kts | 114° |
| 2026-05-05 12:20 | 55.90482 | 37.78002 | 13283 ft | 327 kts | 123° |
| 2026-05-05 12:20 | 55.89373 | 37.81559 | 13941 ft | 329 kts | 123° |
| 2026-05-05 12:20 | 55.88252 | 37.85142 | 14524 ft | 333 kts | 123° |
| 2026-05-05 12:20 | 55.87114 | 37.88760 | 14794 ft | 335 kts | 123° |
| 2026-05-05 12:21 | 55.85979 | 37.92373 | 14866 ft | 335 kts | 123° |
| 2026-05-05 12:21 | 55.84840 | 37.95998 | 14871 ft | 335 kts | 123° |
| 2026-05-05 12:21 | 55.83715 | 37.99569 | 14857 ft | 335 kts | 123° |
| 2026-05-05 12:21 | 55.82575 | 38.03183 | 14855 ft | 335 kts | 123° |
| 2026-05-05 12:22 | 55.81435 | 38.06798 | 14851 ft | 335 kts | 123° |
| 2026-05-05 12:22 | 55.80392 | 38.10505 | 14849 ft | 338 kts | 113° |
| 2026-05-05 12:22 | 55.79798 | 38.14558 | 14850 ft | 345 kts | 99° |
| 2026-05-05 12:22 | 55.79726 | 38.18932 | 15032 ft | 362 kts | 88° |
| 2026-05-05 12:23 | 55.79853 | 38.23445 | 15525 ft | 367 kts | 88° |
| 2026-05-05 12:23 | 55.79956 | 38.27999 | 15807 ft | 370 kts | 89° |
| 2026-05-05 12:23 | 55.80045 | 38.32579 | 15850 ft | 371 kts | 89° |
| 2026-05-05 12:23 | 55.80132 | 38.37162 | 15851 ft | 371 kts | 89° |
| 2026-05-05 12:24 | 55.80426 | 38.41715 | 15856 ft | 372 kts | 77° |
| 2026-05-05 12:24 | 55.81168 | 38.46151 | 16325 ft | 375 kts | 71° |
| 2026-05-05 12:24 | 55.81977 | 38.50576 | 16923 ft | 378 kts | 71° |
| 2026-05-05 12:24 | 55.82776 | 38.55047 | 17497 ft | 381 kts | 72° |
| 2026-05-05 12:25 | 55.83572 | 38.59560 | 18065 ft | 384 kts | 72° |
| 2026-05-05 12:25 | 55.84369 | 38.64098 | 18584 ft | 387 kts | 72° |
| 2026-05-05 12:25 | 55.85181 | 38.68691 | 18802 ft | 389 kts | 72° |
| 2026-05-05 12:25 | 55.86129 | 38.73196 | 18848 ft | 392 kts | 63° |
| 2026-05-05 12:26 | 55.87329 | 38.77653 | 18960 ft | 407 kts | 63° |
| 2026-05-05 12:26 | 55.88568 | 38.82279 | 19080 ft | 421 kts | 63° |
| 2026-05-05 12:26 | 55.89825 | 38.86999 | 19200 ft | 434 kts | 63° |
| 2026-05-05 12:26 | 55.91137 | 38.91936 | 19332 ft | 447 kts | 64° |
| 2026-05-05 12:27 | 55.92485 | 38.97018 | 19460 ft | 459 kts | 64° |
| 2026-05-05 12:27 | 55.93860 | 39.02227 | 19639 ft | 468 kts | 64° |
| 2026-05-05 12:27 | 55.95215 | 39.07521 | 19978 ft | 472 kts | 68° |
| 2026-05-05 12:27 | 55.96212 | 39.13126 | 20347 ft | 476 kts | 77° |
| 2026-05-05 12:28 | 55.96748 | 39.18962 | 20697 ft | 478 kts | 85° |
| 2026-05-05 12:28 | 55.97059 | 39.24875 | 21122 ft | 478 kts | 85° |
| 2026-05-05 12:28 | 55.97375 | 39.30798 | 21528 ft | 480 kts | 85° |
| 2026-05-05 12:28 | 55.97694 | 39.36741 | 21891 ft | 482 kts | 85° |
| 2026-05-05 12:29 | 55.98014 | 39.42711 | 22230 ft | 484 kts | 85° |
| 2026-05-05 12:29 | 55.98331 | 39.48701 | 22572 ft | 486 kts | 85° |
| 2026-05-05 12:29 | 55.98642 | 39.54724 | 22897 ft | 489 kts | 85° |
| 2026-05-05 12:29 | 55.98983 | 39.60771 | 23340 ft | 488 kts | 82° |
| 2026-05-05 12:30 | 55.99712 | 39.66693 | 23719 ft | 489 kts | 72° |
| 2026-05-05 12:30 | 56.00911 | 39.72362 | 24090 ft | 488 kts | 65° |
| 2026-05-05 12:30 | 56.02140 | 39.78006 | 24475 ft | 488 kts | 73° |
| 2026-05-05 12:30 | 56.02837 | 39.83935 | 24875 ft | 487 kts | 83° |
| 2026-05-05 12:31 | 56.03031 | 39.89970 | 25277 ft | 486 kts | 90° |
| 2026-05-05 12:31 | 56.03079 | 39.96016 | 25705 ft | 486 kts | 89° |
| 2026-05-05 12:31 | 56.03155 | 40.02042 | 26151 ft | 485 kts | 89° |
| 2026-05-05 12:31 | 56.03246 | 40.08071 | 26618 ft | 483 kts | 89° |
| 2026-05-05 12:32 | 56.03340 | 40.14060 | 27094 ft | 481 kts | 89° |
| 2026-05-05 12:32 | 56.03427 | 40.20044 | 27548 ft | 480 kts | 89° |
| 2026-05-05 12:32 | 56.03505 | 40.26008 | 27994 ft | 480 kts | 89° |
| 2026-05-05 12:32 | 56.03575 | 40.31975 | 28443 ft | 479 kts | 89° |
| 2026-05-05 12:33 | 56.03640 | 40.37942 | 28905 ft | 479 kts | 89° |
| 2026-05-05 12:33 | 56.03699 | 40.43888 | 29332 ft | 479 kts | 89° |
| 2026-05-05 12:33 | 56.03759 | 40.49835 | 29781 ft | 479 kts | 89° |
| 2026-05-05 12:33 | 56.03816 | 40.55778 | 30191 ft | 478 kts | 89° |
| 2026-05-05 12:34 | 56.03866 | 40.61721 | 30577 ft | 477 kts | 90° |
| 2026-05-05 12:34 | 56.03909 | 40.67660 | 30961 ft | 477 kts | 90° |
| 2026-05-05 12:34 | 56.03955 | 40.73584 | 31359 ft | 477 kts | 90° |
| 2026-05-05 12:34 | 56.04003 | 40.79508 | 31711 ft | 476 kts | 90° |
| 2026-05-05 12:35 | 56.04050 | 40.85429 | 32119 ft | 475 kts | 90° |
| 2026-05-05 12:35 | 56.04094 | 40.91336 | 32534 ft | 474 kts | 90° |
| 2026-05-05 12:35 | 56.04131 | 40.97226 | 32934 ft | 473 kts | 90° |
| 2026-05-05 12:35 | 56.04161 | 41.03112 | 33330 ft | 473 kts | 90° |
| 2026-05-05 12:36 | 56.04189 | 41.08984 | 33727 ft | 472 kts | 90° |
| 2026-05-05 12:36 | 56.04213 | 41.14855 | 34055 ft | 472 kts | 90° |
| 2026-05-05 12:36 | 56.04235 | 41.20726 | 34382 ft | 471 kts | 90° |
| 2026-05-05 12:36 | 56.04258 | 41.26586 | 34675 ft | 472 kts | 90° |
| 2026-05-05 12:37 | 56.04275 | 41.32451 | 34964 ft | 471 kts | 91° |
| 2026-05-05 12:37 | 56.04288 | 41.38308 | 35263 ft | 470 kts | 91° |
| 2026-05-05 12:37 | 56.04300 | 41.44141 | 35553 ft | 470 kts | 91° |
| 2026-05-05 12:37 | 56.04312 | 41.49980 | 35845 ft | 469 kts | 91° |
| 2026-05-05 12:38 | 56.04321 | 41.55803 | 36116 ft | 468 kts | 91° |
| 2026-05-05 12:38 | 56.04329 | 41.61609 | 36447 ft | 465 kts | 91° |
| 2026-05-05 12:38 | 56.04334 | 41.67385 | 36738 ft | 464 kts | 91° |
| 2026-05-05 12:38 | 56.04336 | 41.73171 | 36814 ft | 467 kts | 91° |
| 2026-05-05 12:39 | 56.04318 | 41.84896 | 36814 ft | 475 kts | 91° |
| 2026-05-05 12:39 | 56.04289 | 41.96744 | 36812 ft | 477 kts | 91° |
| 2026-05-05 12:40 | 56.04262 | 42.08629 | 36824 ft | 478 kts | 91° |
| 2026-05-05 12:40 | 56.04219 | 42.20522 | 36814 ft | 479 kts | 91° |
| 2026-05-05 12:41 | 56.04161 | 42.32453 | 36801 ft | 480 kts | 91° |
| 2026-05-05 12:41 | 56.04094 | 42.44381 | 36826 ft | 479 kts | 91° |
| 2026-05-05 12:42 | 56.04007 | 42.56303 | 36830 ft | 479 kts | 92° |
| 2026-05-05 12:42 | 56.03879 | 42.68214 | 36841 ft | 479 kts | 92° |
| 2026-05-05 12:43 | 56.03721 | 42.80124 | 36837 ft | 479 kts | 92° |
| 2026-05-05 12:43 | 56.03547 | 42.92025 | 36845 ft | 479 kts | 92° |
| 2026-05-05 12:44 | 56.03364 | 43.03929 | 36835 ft | 479 kts | 92° |
| 2026-05-05 12:44 | 56.03178 | 43.15838 | 36830 ft | 480 kts | 92° |
| 2026-05-05 12:45 | 56.02970 | 43.27770 | 36830 ft | 480 kts | 92° |
| 2026-05-05 12:45 | 56.03268 | 43.39667 | 36835 ft | 480 kts | 83° |
| 2026-05-05 12:46 | 56.04098 | 43.51529 | 36823 ft | 481 kts | 83° |
| 2026-05-05 12:46 | 56.04899 | 43.63406 | 36828 ft | 481 kts | 83° |
| 2026-05-05 12:47 | 56.05678 | 43.75290 | 36838 ft | 481 kts | 83° |
| 2026-05-05 12:47 | 56.06448 | 43.87111 | 36831 ft | 482 kts | 83° |
| 2026-05-05 12:48 | 56.07216 | 43.99021 | 36824 ft | 482 kts | 84° |
| 2026-05-05 12:48 | 56.07968 | 44.10931 | 36835 ft | 481 kts | 84° |
| 2026-05-05 12:49 | 56.08714 | 44.22841 | 36826 ft | 481 kts | 84° |
| 2026-05-05 12:49 | 56.09454 | 44.34739 | 36819 ft | 481 kts | 84° |
| 2026-05-05 12:50 | 56.10174 | 44.46644 | 36833 ft | 481 kts | 84° |
| 2026-05-05 12:50 | 56.10869 | 44.58585 | 36832 ft | 481 kts | 84° |
| 2026-05-05 12:51 | 56.11188 | 44.70529 | 36834 ft | 480 kts | 93° |
| 2026-05-05 12:51 | 56.10943 | 44.82521 | 36808 ft | 481 kts | 93° |
| 2026-05-05 12:52 | 56.10695 | 44.94486 | 36826 ft | 480 kts | 93° |
| 2026-05-05 12:52 | 56.10440 | 45.06437 | 36832 ft | 480 kts | 93° |
| 2026-05-05 12:53 | 56.10160 | 45.18380 | 36831 ft | 479 kts | 93° |
| 2026-05-05 12:53 | 56.09878 | 45.30307 | 36835 ft | 479 kts | 93° |
| 2026-05-05 12:54 | 56.09434 | 45.48199 | 36831 ft | 479 kts | 93° |
| 2026-05-05 12:55 | 56.09119 | 45.60118 | 36833 ft | 479 kts | 93° |
| 2026-05-05 12:55 | 56.08799 | 45.71955 | 36849 ft | 479 kts | 93° |
| 2026-05-05 12:56 | 56.08522 | 45.81925 | 36850 ft | 479 kts | 94° |
| 2026-05-05 12:56 | 56.08174 | 45.93822 | 36858 ft | 478 kts | 94° |
| 2026-05-05 12:57 | 56.07818 | 46.05708 | 36867 ft | 478 kts | 94° |
| 2026-05-05 12:57 | 56.07457 | 46.17606 | 36856 ft | 479 kts | 94° |
| 2026-05-05 12:58 | 56.07081 | 46.29509 | 36857 ft | 479 kts | 94° |
| 2026-05-05 12:58 | 56.06690 | 46.41410 | 36855 ft | 479 kts | 94° |
| 2026-05-05 12:59 | 56.06305 | 46.53297 | 36867 ft | 478 kts | 92° |
| 2026-05-05 12:59 | 56.06291 | 46.65189 | 36869 ft | 478 kts | 89° |
| 2026-05-05 13:00 | 56.06649 | 46.83014 | 36869 ft | 478 kts | 89° |
| 2026-05-05 13:01 | 56.06850 | 47.06793 | 36861 ft | 477 kts | 90° |
| 2026-05-05 13:01 | 56.06901 | 47.18677 | 36832 ft | 478 kts | 90° |
| 2026-05-05 13:02 | 56.06961 | 47.30569 | 36846 ft | 478 kts | 90° |
| 2026-05-05 13:02 | 56.07017 | 47.42468 | 36855 ft | 478 kts | 90° |
| 2026-05-05 13:03 | 56.07063 | 47.54376 | 36856 ft | 477 kts | 90° |
| 2026-05-05 13:03 | 56.07095 | 47.66259 | 36872 ft | 478 kts | 90° |
| 2026-05-05 13:04 | 56.07114 | 47.78158 | 36872 ft | 478 kts | 90° |
| 2026-05-05 13:04 | 56.07108 | 47.90052 | 36879 ft | 478 kts | 90° |
| 2026-05-05 13:05 | 56.07106 | 48.01885 | 36858 ft | 478 kts | 90° |
| 2026-05-05 13:05 | 56.07098 | 48.13786 | 36878 ft | 478 kts | 90° |
| 2026-05-05 13:06 | 56.07080 | 48.25676 | 36889 ft | 478 kts | 90° |
| 2026-05-05 13:06 | 56.07042 | 48.37549 | 36888 ft | 477 kts | 90° |
| 2026-05-05 13:07 | 56.06998 | 48.49432 | 36892 ft | 477 kts | 90° |
| 2026-05-05 13:07 | 56.06940 | 48.61312 | 36892 ft | 477 kts | 90° |
| 2026-05-05 13:08 | 56.06873 | 48.73195 | 36889 ft | 477 kts | 91° |
| 2026-05-05 13:08 | 56.06792 | 48.85077 | 36889 ft | 477 kts | 91° |
| 2026-05-05 13:09 | 56.06696 | 48.96965 | 36889 ft | 477 kts | 91° |
| 2026-05-05 13:09 | 56.06597 | 49.08835 | 36890 ft | 477 kts | 91° |
| 2026-05-05 13:10 | 56.06484 | 49.20697 | 36895 ft | 476 kts | 91° |
| 2026-05-05 13:10 | 56.06356 | 49.32541 | 36895 ft | 476 kts | 91° |
| 2026-05-05 13:11 | 56.06216 | 49.44377 | 36890 ft | 476 kts | 91° |
| 2026-05-05 13:11 | 56.06067 | 49.56209 | 36884 ft | 476 kts | 91° |
| 2026-05-05 13:12 | 56.05909 | 49.68055 | 36882 ft | 476 kts | 91° |
| 2026-05-05 13:12 | 56.05740 | 49.79898 | 36881 ft | 476 kts | 91° |
| 2026-05-05 13:13 | 56.05554 | 49.91727 | 36897 ft | 476 kts | 91° |
| 2026-05-05 13:13 | 56.05364 | 50.03565 | 36904 ft | 476 kts | 91° |
| 2026-05-05 13:14 | 56.05165 | 50.15381 | 36903 ft | 475 kts | 92° |
| 2026-05-05 13:14 | 56.04949 | 50.27123 | 36900 ft | 475 kts | 92° |
| 2026-05-05 13:15 | 56.04719 | 50.39000 | 36894 ft | 475 kts | 92° |
| 2026-05-05 13:15 | 56.04484 | 50.50718 | 36895 ft | 475 kts | 92° |
| 2026-05-05 13:16 | 56.04237 | 50.62518 | 36901 ft | 475 kts | 92° |
| 2026-05-05 13:16 | 56.03978 | 50.74326 | 36911 ft | 475 kts | 92° |
| 2026-05-05 13:17 | 56.03714 | 50.86136 | 36907 ft | 475 kts | 91° |
| 2026-05-05 13:17 | 56.03697 | 50.97950 | 36909 ft | 475 kts | 89° |
| 2026-05-05 13:18 | 56.03831 | 51.09769 | 36904 ft | 475 kts | 89° |
| 2026-05-05 13:18 | 56.03924 | 51.21578 | 36905 ft | 475 kts | 89° |
| 2026-05-05 13:19 | 56.03952 | 51.33396 | 36905 ft | 475 kts | 90° |
| 2026-05-05 13:19 | 56.03941 | 51.45200 | 36919 ft | 475 kts | 90° |
| 2026-05-05 13:20 | 56.03931 | 51.57025 | 36910 ft | 475 kts | 90° |
| 2026-05-05 13:20 | 56.03924 | 51.68860 | 36911 ft | 476 kts | 90° |
| 2026-05-05 13:21 | 56.03907 | 51.80705 | 36913 ft | 476 kts | 90° |
| 2026-05-05 13:21 | 56.04087 | 51.92554 | 36906 ft | 476 kts | 86° |
| 2026-05-05 13:22 | 56.04581 | 52.04356 | 36901 ft | 476 kts | 85° |
| 2026-05-05 13:22 | 56.05095 | 52.16160 | 36913 ft | 476 kts | 85° |
| 2026-05-05 13:23 | 56.05511 | 52.27977 | 36904 ft | 476 kts | 86° |
| 2026-05-05 13:23 | 56.05871 | 52.39813 | 36893 ft | 476 kts | 86° |
| 2026-05-05 13:24 | 56.06229 | 52.51663 | 36896 ft | 477 kts | 86° |
| 2026-05-05 13:24 | 56.06585 | 52.63503 | 36897 ft | 476 kts | 86° |
| 2026-05-05 13:25 | 56.06921 | 52.75340 | 36893 ft | 476 kts | 87° |
| 2026-05-05 13:25 | 56.07219 | 52.87174 | 36894 ft | 476 kts | 87° |
| 2026-05-05 13:26 | 56.07500 | 52.99010 | 36887 ft | 476 kts | 87° |
| 2026-05-05 13:26 | 56.07770 | 53.10856 | 36888 ft | 476 kts | 87° |
| 2026-05-05 13:27 | 56.08036 | 53.22702 | 36882 ft | 476 kts | 87° |
| 2026-05-05 13:27 | 56.08291 | 53.34563 | 36889 ft | 477 kts | 87° |
| 2026-05-05 13:28 | 56.08542 | 53.46433 | 36885 ft | 477 kts | 88° |
| 2026-05-05 13:28 | 56.08774 | 53.58302 | 36889 ft | 477 kts | 88° |
| 2026-05-05 13:29 | 56.08993 | 53.70171 | 36890 ft | 477 kts | 88° |
| 2026-05-05 13:29 | 56.09212 | 53.82049 | 36891 ft | 477 kts | 88° |
| 2026-05-05 13:30 | 56.09421 | 53.93928 | 36886 ft | 477 kts | 88° |
| 2026-05-05 13:30 | 56.09617 | 54.05809 | 36888 ft | 477 kts | 88° |
| 2026-05-05 13:31 | 56.09802 | 54.17684 | 36892 ft | 477 kts | 88° |
| 2026-05-05 13:31 | 56.09969 | 54.29558 | 36892 ft | 477 kts | 88° |
| 2026-05-05 13:32 | 56.10601 | 54.41349 | 36884 ft | 476 kts | 80° |
| 2026-05-05 13:32 | 56.11630 | 54.53053 | 36881 ft | 476 kts | 80° |
| 2026-05-05 13:33 | 56.12657 | 54.64764 | 36881 ft | 476 kts | 80° |
| 2026-05-05 13:33 | 56.13664 | 54.76414 | 36885 ft | 476 kts | 80° |
| 2026-05-05 13:34 | 56.14647 | 54.88156 | 36890 ft | 476 kts | 81° |
| 2026-05-05 13:34 | 56.15620 | 54.99905 | 36887 ft | 476 kts | 81° |
| 2026-05-05 13:35 | 56.16588 | 55.11647 | 36886 ft | 476 kts | 81° |
| 2026-05-05 13:35 | 56.17560 | 55.23390 | 36892 ft | 476 kts | 81° |
| 2026-05-05 13:36 | 56.18516 | 55.35136 | 36891 ft | 476 kts | 81° |
| 2026-05-05 13:36 | 56.19452 | 55.46905 | 36896 ft | 476 kts | 81° |
| 2026-05-05 13:37 | 56.20368 | 55.58687 | 36887 ft | 476 kts | 81° |
| 2026-05-05 13:37 | 56.21290 | 55.70463 | 36890 ft | 476 kts | 81° |
| 2026-05-05 13:38 | 56.22060 | 55.80344 | 36894 ft | 477 kts | 81° |
| 2026-05-05 13:38 | 56.22961 | 55.92138 | 36901 ft | 476 kts | 81° |
| 2026-05-05 13:39 | 56.23843 | 56.03937 | 36893 ft | 476 kts | 81° |
| 2026-05-05 13:39 | 56.24715 | 56.15661 | 36920 ft | 475 kts | 81° |
| 2026-05-05 13:40 | 56.25578 | 56.27440 | 36904 ft | 475 kts | 81° |
| 2026-05-05 13:40 | 56.26432 | 56.39230 | 36898 ft | 475 kts | 81° |
| 2026-05-05 13:41 | 56.27269 | 56.51020 | 36895 ft | 475 kts | 81° |
| 2026-05-05 13:41 | 56.28099 | 56.62820 | 36893 ft | 475 kts | 81° |
| 2026-05-05 13:42 | 56.28922 | 56.74690 | 36910 ft | 475 kts | 81° |
| 2026-05-05 13:42 | 56.29724 | 56.86439 | 36911 ft | 475 kts | 81° |
| 2026-05-05 13:43 | 56.30535 | 56.98265 | 36906 ft | 476 kts | 81° |
| 2026-05-05 13:43 | 56.31337 | 57.10104 | 36907 ft | 476 kts | 81° |
| 2026-05-05 13:44 | 56.32117 | 57.21938 | 36904 ft | 475 kts | 82° |
| 2026-05-05 13:44 | 56.32874 | 57.33762 | 36921 ft | 475 kts | 82° |
| 2026-05-05 13:45 | 56.33623 | 57.45584 | 36918 ft | 474 kts | 82° |
| 2026-05-05 13:45 | 56.34387 | 57.57384 | 36912 ft | 473 kts | 82° |
| 2026-05-05 13:46 | 56.35120 | 57.69180 | 36908 ft | 473 kts | 82° |
| 2026-05-05 13:46 | 56.35827 | 57.80970 | 36909 ft | 473 kts | 82° |
| 2026-05-05 13:47 | 56.36528 | 57.92770 | 36915 ft | 473 kts | 82° |
| 2026-05-05 13:47 | 56.37227 | 58.04572 | 36909 ft | 473 kts | 82° |
| 2026-05-05 13:48 | 56.37919 | 58.16365 | 36904 ft | 473 kts | 82° |
| 2026-05-05 13:48 | 56.38594 | 58.28170 | 36909 ft | 473 kts | 82° |
| 2026-05-05 13:49 | 56.39249 | 58.39991 | 36905 ft | 473 kts | 82° |
| 2026-05-05 13:49 | 56.39904 | 58.51799 | 36902 ft | 473 kts | 82° |
| 2026-05-05 13:50 | 56.40554 | 58.63624 | 36904 ft | 473 kts | 83° |
| 2026-05-05 13:50 | 56.41187 | 58.75448 | 36906 ft | 473 kts | 83° |
| 2026-05-05 13:51 | 56.41806 | 58.87293 | 36909 ft | 473 kts | 83° |
| 2026-05-05 13:51 | 56.42404 | 58.99140 | 36911 ft | 474 kts | 83° |
| 2026-05-05 13:52 | 56.42971 | 59.10933 | 36905 ft | 474 kts | 86° |
| 2026-05-05 13:52 | 56.42807 | 59.22854 | 36902 ft | 475 kts | 91° |
| 2026-05-05 13:53 | 56.42561 | 59.34774 | 36905 ft | 475 kts | 91° |
| 2026-05-05 13:53 | 56.42301 | 59.46685 | 36904 ft | 475 kts | 91° |
| 2026-05-05 13:54 | 56.42042 | 59.58607 | 36906 ft | 475 kts | 91° |
| 2026-05-05 13:54 | 56.41781 | 59.70513 | 36906 ft | 474 kts | 91° |
| 2026-05-05 13:55 | 56.41489 | 59.82430 | 36904 ft | 475 kts | 92° |
| 2026-05-05 13:55 | 56.41180 | 59.94342 | 36908 ft | 476 kts | 92° |
| 2026-05-05 13:56 | 56.40867 | 60.06285 | 36907 ft | 476 kts | 92° |
| 2026-05-05 13:56 | 56.40544 | 60.18215 | 36913 ft | 476 kts | 92° |
| 2026-05-05 13:57 | 56.40222 | 60.30146 | 36907 ft | 475 kts | 92° |
| 2026-05-05 13:57 | 56.39908 | 60.42080 | 36903 ft | 476 kts | 92° |
| 2026-05-05 13:58 | 56.39571 | 60.54001 | 36904 ft | 476 kts | 92° |
| 2026-05-05 13:58 | 56.39189 | 60.65929 | 36913 ft | 477 kts | 93° |
| 2026-05-05 13:59 | 56.38580 | 60.83868 | 36891 ft | 478 kts | 93° |
| 2026-05-05 14:00 | 56.38032 | 60.99833 | 36890 ft | 479 kts | 93° |
| 2026-05-05 14:00 | 56.37551 | 61.13866 | 36893 ft | 480 kts | 93° |
| 2026-05-05 14:01 | 56.37164 | 61.25885 | 36917 ft | 480 kts | 93° |
| 2026-05-05 14:01 | 56.36753 | 61.37916 | 36913 ft | 481 kts | 94° |
| 2026-05-05 14:02 | 56.36326 | 61.49954 | 36918 ft | 481 kts | 94° |
| 2026-05-05 14:02 | 56.35884 | 61.61993 | 36921 ft | 481 kts | 94° |
| 2026-05-05 14:03 | 56.35433 | 61.74043 | 36928 ft | 482 kts | 94° |
| 2026-05-05 14:03 | 56.34978 | 61.86092 | 36920 ft | 482 kts | 94° |
| 2026-05-05 14:04 | 56.34509 | 61.98146 | 36917 ft | 483 kts | 94° |
| 2026-05-05 14:04 | 56.34024 | 62.10232 | 36916 ft | 484 kts | 94° |
| 2026-05-05 14:05 | 56.33519 | 62.22252 | 36919 ft | 484 kts | 94° |
| 2026-05-05 14:05 | 56.33006 | 62.34351 | 36929 ft | 484 kts | 94° |
| 2026-05-05 14:06 | 56.32486 | 62.46447 | 36924 ft | 484 kts | 95° |
| 2026-05-05 14:06 | 56.31947 | 62.58546 | 36924 ft | 484 kts | 95° |
| 2026-05-05 14:07 | 56.31393 | 62.70628 | 36936 ft | 485 kts | 95° |
| 2026-05-05 14:07 | 56.30838 | 62.82738 | 36934 ft | 485 kts | 95° |
| 2026-05-05 14:08 | 56.30277 | 62.94848 | 36932 ft | 485 kts | 95° |
| 2026-05-05 14:08 | 56.29687 | 63.06945 | 36928 ft | 485 kts | 95° |
| 2026-05-05 14:09 | 56.29091 | 63.19044 | 36940 ft | 486 kts | 95° |
| 2026-05-05 14:09 | 56.28473 | 63.31240 | 36957 ft | 486 kts | 96° |
| 2026-05-05 14:10 | 56.27843 | 63.43342 | 36945 ft | 486 kts | 95° |
| 2026-05-05 14:10 | 56.27209 | 63.55454 | 36943 ft | 486 kts | 96° |
| 2026-05-05 14:11 | 56.26549 | 63.67553 | 36942 ft | 486 kts | 96° |
| 2026-05-05 14:11 | 56.25878 | 63.79659 | 36940 ft | 486 kts | 96° |
| 2026-05-05 14:12 | 56.25207 | 63.91758 | 36920 ft | 486 kts | 96° |
| 2026-05-05 14:12 | 56.24513 | 64.03867 | 36925 ft | 487 kts | 96° |
| 2026-05-05 14:13 | 56.23800 | 64.15995 | 36925 ft | 488 kts | 96° |
| 2026-05-05 14:13 | 56.23085 | 64.28056 | 36929 ft | 489 kts | 96° |
| 2026-05-05 14:14 | 56.22360 | 64.40207 | 36936 ft | 489 kts | 96° |
| 2026-05-05 14:14 | 56.21613 | 64.52364 | 36943 ft | 489 kts | 97° |
| 2026-05-05 14:15 | 56.20856 | 64.64512 | 36953 ft | 489 kts | 97° |
| 2026-05-05 14:15 | 56.20087 | 64.76665 | 36957 ft | 490 kts | 97° |
| 2026-05-05 14:16 | 56.19297 | 64.88830 | 36956 ft | 491 kts | 97° |
| 2026-05-05 14:16 | 56.18499 | 65.01008 | 36942 ft | 491 kts | 97° |
| 2026-05-05 14:17 | 56.17689 | 65.13178 | 36945 ft | 491 kts | 97° |
| 2026-05-05 14:17 | 56.16867 | 65.25352 | 36951 ft | 491 kts | 97° |
| 2026-05-05 14:18 | 56.16037 | 65.37531 | 36958 ft | 492 kts | 98° |
| 2026-05-05 14:18 | 56.15342 | 65.47653 | 36953 ft | 492 kts | 98° |
| 2026-05-05 14:19 | 56.14494 | 65.59830 | 36954 ft | 492 kts | 98° |
| 2026-05-05 14:19 | 56.13632 | 65.72011 | 36957 ft | 493 kts | 98° |
| 2026-05-05 14:20 | 56.12755 | 65.84211 | 36960 ft | 493 kts | 98° |
| 2026-05-05 14:20 | 56.11880 | 65.96401 | 36961 ft | 493 kts | 98° |
| 2026-05-05 14:21 | 56.10978 | 66.08587 | 36948 ft | 494 kts | 98° |
| 2026-05-05 14:21 | 56.10057 | 66.20780 | 36947 ft | 494 kts | 98° |
| 2026-05-05 14:22 | 56.09130 | 66.32979 | 36954 ft | 495 kts | 98° |
| 2026-05-05 14:22 | 56.08201 | 66.45195 | 36960 ft | 495 kts | 98° |
| 2026-05-05 14:23 | 56.07254 | 66.57397 | 36961 ft | 495 kts | 99° |
| 2026-05-05 14:23 | 56.06285 | 66.69601 | 36959 ft | 495 kts | 99° |
| 2026-05-05 14:24 | 56.05292 | 66.81797 | 36956 ft | 495 kts | 99° |
| 2026-05-05 14:24 | 56.04314 | 66.93986 | 36957 ft | 495 kts | 99° |
| 2026-05-05 14:25 | 56.03321 | 67.06177 | 36939 ft | 495 kts | 99° |
| 2026-05-05 14:25 | 56.02296 | 67.18353 | 36943 ft | 496 kts | 100° |
| 2026-05-05 14:26 | 56.01269 | 67.30547 | 36952 ft | 496 kts | 99° |
| 2026-05-05 14:26 | 56.00251 | 67.42745 | 36953 ft | 496 kts | 100° |
| 2026-05-05 14:27 | 55.99201 | 67.54953 | 36949 ft | 496 kts | 100° |
| 2026-05-05 14:27 | 55.98136 | 67.67053 | 36949 ft | 497 kts | 100° |
| 2026-05-05 14:28 | 55.97047 | 67.79237 | 36938 ft | 497 kts | 101° |
| 2026-05-05 14:28 | 55.95944 | 67.91419 | 36943 ft | 497 kts | 101° |
| 2026-05-05 14:29 | 55.94843 | 68.03589 | 36906 ft | 497 kts | 101° |
| 2026-05-05 14:29 | 55.93733 | 68.15767 | 36904 ft | 498 kts | 101° |
| 2026-05-05 14:30 | 55.92602 | 68.27962 | 36898 ft | 499 kts | 101° |
| 2026-05-05 14:30 | 55.91462 | 68.40186 | 36907 ft | 500 kts | 101° |
| 2026-05-05 14:31 | 55.90308 | 68.52397 | 36898 ft | 500 kts | 102° |
| 2026-05-05 14:31 | 55.89131 | 68.64611 | 36901 ft | 500 kts | 102° |
| 2026-05-05 14:32 | 55.87947 | 68.76802 | 36899 ft | 500 kts | 102° |
| 2026-05-05 14:32 | 55.86751 | 68.89006 | 36893 ft | 501 kts | 102° |
| 2026-05-05 14:33 | 55.85553 | 69.01216 | 36895 ft | 501 kts | 102° |
| 2026-05-05 14:33 | 55.84337 | 69.13410 | 36856 ft | 501 kts | 102° |
| 2026-05-05 14:34 | 55.83097 | 69.25636 | 36852 ft | 502 kts | 103° |
| 2026-05-05 14:34 | 55.81839 | 69.37856 | 36848 ft | 502 kts | 103° |
| 2026-05-05 14:35 | 55.80578 | 69.50083 | 36850 ft | 503 kts | 103° |
| 2026-05-05 14:35 | 55.79317 | 69.62315 | 36848 ft | 503 kts | 103° |
| 2026-05-05 14:36 | 55.78039 | 69.74540 | 36849 ft | 503 kts | 103° |
| 2026-05-05 14:36 | 55.76751 | 69.86762 | 36840 ft | 503 kts | 103° |
| 2026-05-05 14:37 | 55.75451 | 69.98973 | 36845 ft | 503 kts | 103° |
| 2026-05-05 14:37 | 55.74136 | 70.11169 | 36808 ft | 503 kts | 103° |
| 2026-05-05 14:38 | 55.72806 | 70.23368 | 36808 ft | 504 kts | 104° |
| 2026-05-05 14:38 | 55.71467 | 70.35491 | 36807 ft | 504 kts | 104° |
| 2026-05-05 14:39 | 55.70104 | 70.47769 | 36815 ft | 504 kts | 104° |
| 2026-05-05 14:39 | 55.68742 | 70.59974 | 36821 ft | 505 kts | 104° |
| 2026-05-05 14:40 | 55.67364 | 70.72167 | 36814 ft | 505 kts | 104° |
| 2026-05-05 14:40 | 55.65970 | 70.84350 | 36820 ft | 505 kts | 104° |
| 2026-05-05 14:41 | 55.64562 | 70.96524 | 36825 ft | 505 kts | 104° |
| 2026-05-05 14:41 | 55.64224 | 70.99422 | 36826 ft | 505 kts | 104° |
| 2026-05-05 14:44 | 55.63286 | 71.07461 | 36796 ft | 505 kts | 104° |
| 2026-05-05 14:45 | 55.61851 | 71.19617 | 36807 ft | 504 kts | 105° |
| 2026-05-05 14:45 | 55.60887 | 71.25556 | 36677 ft | 501 kts | 113° |
| 2026-05-05 14:45 | 55.59695 | 71.31375 | 35886 ft | 505 kts | 114° |
| 2026-05-05 14:46 | 55.58479 | 71.37205 | 35163 ft | 506 kts | 115° |
| 2026-05-05 14:46 | 55.57244 | 71.43052 | 34451 ft | 507 kts | 116° |
| 2026-05-05 14:46 | 55.56009 | 71.48876 | 33837 ft | 506 kts | 116° |
| 2026-05-05 14:46 | 55.54773 | 71.54702 | 32938 ft | 508 kts | 116° |
| 2026-05-05 14:47 | 55.53537 | 71.60538 | 31591 ft | 508 kts | 116° |
| 2026-05-05 14:47 | 55.52294 | 71.66409 | 30627 ft | 512 kts | 116° |
| 2026-05-05 14:47 | 55.51043 | 71.72312 | 29612 ft | 516 kts | 116° |
| 2026-05-05 14:47 | 55.49790 | 71.78196 | 28466 ft | 521 kts | 116° |
| 2026-05-05 14:48 | 55.48511 | 71.84192 | 27314 ft | 524 kts | 116° |
| 2026-05-05 14:48 | 55.47224 | 71.90219 | 26148 ft | 527 kts | 116° |
| 2026-05-05 14:48 | 55.45922 | 71.96292 | 24806 ft | 534 kts | 116° |
| 2026-05-05 14:48 | 55.44601 | 72.02423 | 23626 ft | 538 kts | 116° |
| 2026-05-05 14:49 | 55.43284 | 72.08554 | 22904 ft | 528 kts | 116° |
| 2026-05-05 14:49 | 55.42012 | 72.14491 | 21485 ft | 512 kts | 116° |
| 2026-05-05 14:49 | 55.40766 | 72.20266 | 20625 ft | 499 kts | 116° |
| 2026-05-05 14:49 | 55.39528 | 72.25940 | 19714 ft | 495 kts | 117° |
| 2026-05-05 14:50 | 55.38292 | 72.31559 | 18864 ft | 490 kts | 117° |
| 2026-05-05 14:50 | 55.37070 | 72.37100 | 18191 ft | 479 kts | 117° |
| 2026-05-05 14:50 | 55.35889 | 72.42483 | 16888 ft | 465 kts | 117° |
| 2026-05-05 14:50 | 55.34759 | 72.47649 | 16177 ft | 444 kts | 117° |
| 2026-05-05 14:51 | 55.33661 | 72.52636 | 15378 ft | 443 kts | 117° |
| 2026-05-05 14:51 | 55.32526 | 72.57737 | 14582 ft | 441 kts | 116° |
| 2026-05-05 14:51 | 55.31420 | 72.62677 | 13837 ft | 440 kts | 116° |
| 2026-05-05 14:51 | 55.30300 | 72.67671 | 13041 ft | 440 kts | 117° |
| 2026-05-05 14:52 | 55.29183 | 72.72622 | 12346 ft | 432 kts | 117° |
| 2026-05-05 14:52 | 55.28091 | 72.77495 | 11651 ft | 426 kts | 117° |
| 2026-05-05 14:52 | 55.27042 | 72.82279 | 11123 ft | 409 kts | 116° |
| 2026-05-05 14:52 | 55.26111 | 72.86790 | 10825 ft | 378 kts | 116° |
| 2026-05-05 14:53 | 55.25274 | 72.90966 | 10657 ft | 349 kts | 116° |
| 2026-05-05 14:53 | 55.24501 | 72.94839 | 10449 ft | 327 kts | 116° |
| 2026-05-05 14:53 | 55.23759 | 72.98514 | 10171 ft | 314 kts | 117° |
| 2026-05-05 14:53 | 55.23019 | 73.02080 | 9920 ft | 308 kts | 118° |
| 2026-05-05 14:54 | 55.22283 | 73.05596 | 9731 ft | 308 kts | 117° |
| 2026-05-05 14:54 | 55.21536 | 73.09112 | 9652 ft | 309 kts | 118° |
| 2026-05-05 14:54 | 55.20789 | 73.12638 | 9653 ft | 311 kts | 118° |
| 2026-05-05 14:54 | 55.20043 | 73.16178 | 9651 ft | 310 kts | 117° |
| 2026-05-05 14:55 | 55.19306 | 73.19715 | 9653 ft | 309 kts | 117° |
| 2026-05-05 14:55 | 55.18563 | 73.23247 | 9569 ft | 313 kts | 118° |
| 2026-05-05 14:55 | 55.17796 | 73.26852 | 9108 ft | 312 kts | 117° |
| 2026-05-05 14:55 | 55.17049 | 73.30381 | 8467 ft | 306 kts | 119° |
| 2026-05-05 14:56 | 55.16313 | 73.33866 | 7821 ft | 308 kts | 118° |
| 2026-05-05 14:56 | 55.15582 | 73.37351 | 7423 ft | 302 kts | 118° |
| 2026-05-05 14:56 | 55.14858 | 73.40801 | 6775 ft | 302 kts | 117° |
| 2026-05-05 14:56 | 55.14132 | 73.44240 | 6263 ft | 303 kts | 117° |
| 2026-05-05 14:57 | 55.13409 | 73.47651 | 5909 ft | 296 kts | 117° |
| 2026-05-05 14:57 | 55.12694 | 73.51023 | 5307 ft | 295 kts | 117° |
| 2026-05-05 14:57 | 55.11975 | 73.54391 | 4685 ft | 296 kts | 116° |
| 2026-05-05 14:57 | 55.11262 | 73.57736 | 4180 ft | 291 kts | 117° |
| 2026-05-05 14:58 | 55.10250 | 73.60570 | 3815 ft | 266 kts | 144° |
| 2026-05-05 14:58 | 55.08785 | 73.62114 | 3754 ft | 230 kts | 171° |
| 2026-05-05 14:58 | 55.07305 | 73.62421 | 3686 ft | 204 kts | 193° |
| 2026-05-05 14:58 | 55.05965 | 73.61842 | 3598 ft | 196 kts | 204° |
| 2026-05-05 14:59 | 55.04663 | 73.61129 | 3514 ft | 196 kts | 204° |
| 2026-05-05 14:59 | 55.03358 | 73.60429 | 3416 ft | 196 kts | 203° |
| 2026-05-05 14:59 | 55.02059 | 73.59704 | 3325 ft | 194 kts | 209° |
| 2026-05-05 14:59 | 55.00946 | 73.58460 | 3199 ft | 189 kts | 227° |
| 2026-05-05 15:00 | 55.00182 | 73.56646 | 3018 ft | 185 kts | 246° |
| 2026-05-05 15:00 | 54.99913 | 73.55246 | 2880 ft | 183 kts | 256° |
| 2026-05-05 15:00 | 54.99547 | 73.52437 | 2598 ft | 172 kts | 256° |
| 2026-05-05 15:00 | 54.99291 | 73.50488 | 2367 ft | 157 kts | 256° |
| 2026-05-05 15:01 | 54.99061 | 73.48740 | 2178 ft | 140 kts | 256° |
| 2026-05-05 15:01 | 54.98847 | 73.47112 | 1987 ft | 136 kts | 256° |
| 2026-05-05 15:01 | 54.98635 | 73.45510 | 1809 ft | 134 kts | 255° |
| 2026-05-05 15:01 | 54.98427 | 73.43939 | 1632 ft | 133 kts | 256° |
| 2026-05-05 15:02 | 54.98221 | 73.42378 | 1451 ft | 132 kts | 255° |
| 2026-05-05 15:02 | 54.98015 | 73.40825 | 1289 ft | 132 kts | 256° |
| 2026-05-05 15:02 | 54.97807 | 73.39253 | 1096 ft | 135 kts | 255° |
| 2026-05-05 15:02 | 54.97595 | 73.37658 | 903 ft | 136 kts | 256° |
| 2026-05-05 15:03 | 54.97382 | 73.36042 | 703 ft | 137 kts | 257° |
| 2026-05-05 15:03 | 54.97168 | 73.34421 | 507 ft | 137 kts | 257° |
| 2026-05-05 15:03 | 54.96951 | 73.32802 | 322 ft | 137 kts | 258° |
| 2026-05-05 15:03 | 54.96819 | 73.31808 | 308 ft | 114 kts | 257° |
| 2026-05-05 15:04 | 54.96679 | 73.30760 | 313 ft | 64 kts | 256° |
| 2026-05-05 15:04 | 54.96612 | 73.30267 | 316 ft | 29 kts | 257° |
| 2026-05-05 15:04 | 54.96547 | 73.30060 | 316 ft | 18 kts | 193° |
| 2026-05-05 15:04 | 54.96450 | 73.30096 | 317 ft | 14 kts | 161° |
| 2026-05-05 15:05 | 54.96232 | 73.30179 | 317 ft | 16 kts | 166° |
| 2026-05-05 15:05 | 54.96214 | 73.30354 | 317 ft | 18 kts | 76° |
| 2026-05-05 15:05 | 54.96242 | 73.30586 | 315 ft | 21 kts | 77° |
| 2026-05-05 15:06 | 54.96278 | 73.30857 | 314 ft | 25 kts | 77° |
| 2026-05-05 15:06 | 54.96319 | 73.31167 | 312 ft | 28 kts | 77° |
| 2026-05-05 15:06 | 54.96361 | 73.31478 | 309 ft | 17 kts | 75° |
| 2026-05-05 15:06 | 54.96340 | 73.31679 | 311 ft | 19 kts | 139° |
| 2026-05-05 15:07 | 54.96299 | 73.31828 | 310 ft | 15 kts | 88° |